Time;durP1;ratioP1;P1;durP2;ratioP2;P2;SDS_P1;SDS_P2;PMS_P1;PMS_P2;Temp;Humidity;BMP_temperature;BMP_pressure;BME280_temperature;BME280_humidity;BME280_pressure;Samples;Min_cycle;Max_cycle;Signal;HPM_P1;HPM_P2
2021/03/15 00:00:47;;;;;;;25.92;16.90;;;2.50;99.90;;;;;;5055486;28;20289;-67
2021/03/15 00:03:15;;;;;;;20.10;15.25;;;2.60;99.90;;;;;;5072616;28;20203;-67
2021/03/15 00:05:56;;;;;;;23.00;16.35;;;2.60;99.90;;;;;;5055899;28;20200;-67
2021/03/15 00:08:24;;;;;;;33.05;19.75;;;2.60;99.90;;;;;;5070932;28;20207;-68
2021/03/15 00:10:50;;;;;;;34.50;18.45;;;2.20;99.90;;;;;;5074429;28;20516;-67
2021/03/15 00:13:18;;;;;;;34.70;20.08;;;2.30;99.90;;;;;;5074396;28;20203;-67
2021/03/15 00:15:46;;;;;;;34.85;20.98;;;2.40;99.90;;;;;;5074313;28;20552;-67
2021/03/15 00:18:12;;;;;;;39.30;18.85;;;2.50;99.90;;;;;;5075686;28;20202;-67
2021/03/15 00:20:39;;;;;;;32.60;20.63;;;2.50;99.90;;;;;;5079617;28;20234;-67
2021/03/15 00:23:06;;;;;;;31.33;18.90;;;2.50;99.90;;;;;;5079667;28;20202;-67
2021/03/15 00:25:33;;;;;;;30.95;19.95;;;2.50;99.90;;;;;;5077261;28;20207;-66
2021/03/15 00:27:59;;;;;;;34.00;19.67;;;2.40;99.90;;;;;;5079910;28;20202;-67
2021/03/15 00:30:26;;;;;;;34.10;19.90;;;2.30;99.90;;;;;;5060308;28;20207;-67
2021/03/15 00:32:53;;;;;;;32.92;18.50;;;2.30;99.90;;;;;;5079690;28;20230;-66
2021/03/15 00:35:20;;;;;;;33.40;20.83;;;2.30;99.90;;;;;;5076553;28;20203;-67
2021/03/15 00:37:48;;;;;;;32.08;18.65;;;2.30;99.90;;;;;;5077223;28;20223;-66
2021/03/15 00:40:18;;;;;;;27.10;16.83;;;2.30;99.90;;;;;;5075884;28;20226;-67
2021/03/15 00:42:45;;;;;;;30.77;18.52;;;2.20;99.90;;;;;;5079013;28;20512;-65
2021/03/15 00:45:14;;;;;;;24.52;16.10;;;2.30;99.90;;;;;;5070173;28;20243;-66
2021/03/15 00:47:41;;;;;;;28.45;17.15;;;2.30;99.90;;;;;;5076460;28;20214;-66
2021/03/15 00:50:30;;;;;;;29.80;15.60;;;2.30;99.90;;;;;;5076206;28;20222;-67
2021/03/15 00:52:57;;;;;;;33.38;15.05;;;2.30;99.90;;;;;;5075633;28;20206;-66
2021/03/15 00:55:25;;;;;;;25.88;15.13;;;2.30;99.90;;;;;;5074575;28;20203;-67
2021/03/15 00:57:52;;;;;;;21.27;13.48;;;2.10;99.90;;;;;;5065819;28;20223;-67
2021/03/15 01:00:24;;;;;;;25.73;14.27;;;2.20;99.90;;;;;;5072506;28;20227;-66
2021/03/15 01:02:51;;;;;;;22.23;13.45;;;2.10;99.90;;;;;;5076864;28;20863;-66
2021/03/15 01:05:21;;;;;;;28.20;13.57;;;2.10;99.90;;;;;;5073218;28;20430;-66
2021/03/15 01:07:48;;;;;;;20.85;11.88;;;2.20;99.90;;;;;;5076908;28;20207;-66
2021/03/15 01:10:15;;;;;;;22.75;15.23;;;2.20;99.90;;;;;;5073106;28;20212;-66
2021/03/15 01:12:42;;;;;;;20.90;13.70;;;2.30;99.90;;;;;;5076120;28;20487;-66
2021/03/15 01:15:10;;;;;;;20.17;13.75;;;2.10;99.90;;;;;;5075480;28;20535;-67
2021/03/15 01:17:37;;;;;;;22.45;14.07;;;2.10;99.90;;;;;;5073464;28;20225;-66
2021/03/15 01:20:06;;;;;;;23.42;13.30;;;2.10;99.90;;;;;;5061084;28;20238;-67
2021/03/15 01:22:33;;;;;;;24.00;13.52;;;2.20;99.90;;;;;;5049904;28;20429;-66
2021/03/15 01:24:59;;;;;;;21.35;14.32;;;2.10;99.90;;;;;;5059234;28;20250;-66
2021/03/15 01:27:26;;;;;;;19.58;13.27;;;2.10;99.90;;;;;;5066890;28;20212;-66
2021/03/15 01:29:53;;;;;;;27.38;13.60;;;2.10;99.90;;;;;;5071856;28;20282;-66
2021/03/15 01:32:21;;;;;;;21.77;11.10;;;3.00;99.90;;;;;;5073775;28;20234;-67
2021/03/15 01:34:48;;;;;;;23.65;11.82;;;2.10;99.90;;;;;;5075085;28;20253;-66
2021/03/15 01:37:15;;;;;;;19.85;13.25;;;2.00;99.90;;;;;;5078867;28;20227;-66
2021/03/15 01:39:41;;;;;;;23.38;12.27;;;2.00;99.90;;;;;;5079004;28;20217;-66
2021/03/15 01:42:08;;;;;;;20.05;12.10;;;2.20;99.90;;;;;;5060892;28;20371;-67
2021/03/15 01:44:35;;;;;;;16.30;12.10;;;2.20;99.90;;;;;;5079247;28;20242;-66
2021/03/15 01:47:02;;;;;;;16.23;11.02;;;2.10;99.90;;;;;;5081408;28;20198;-66
2021/03/15 01:49:29;;;;;;;22.30;13.23;;;2.20;99.90;;;;;;5078445;28;20266;-69
2021/03/15 01:51:56;;;;;;;17.63;12.85;;;2.10;99.90;;;;;;5077721;28;20203;-67
2021/03/15 01:54:23;;;;;;;21.92;12.50;;;2.00;99.90;;;;;;5078749;28;20509;-67
2021/03/15 01:56:49;;;;;;;21.85;12.80;;;2.00;99.90;;;;;;5078439;28;20207;-68
2021/03/15 01:59:17;;;;;;;22.95;13.05;;;2.10;99.90;;;;;;5068971;28;20218;-68
2021/03/15 02:01:49;;;;;;;22.67;13.48;;;2.00;99.90;;;;;;5079345;28;20257;-68
2021/03/15 02:04:16;;;;;;;23.58;12.75;;;2.10;99.90;;;;;;5071478;28;20214;-67
2021/03/15 02:06:44;;;;;;;22.40;14.85;;;2.10;99.90;;;;;;5072025;28;20207;-67
2021/03/15 02:09:13;;;;;;;21.85;12.18;;;2.00;99.90;;;;;;5063582;28;20207;-67
2021/03/15 02:11:50;;;;;;;16.58;11.15;;;2.00;99.90;;;;;;5077183;28;20218;-68
2021/03/15 02:14:32;;;;;;;24.98;13.45;;;2.10;99.90;;;;;;5071350;28;20199;-68
2021/03/15 02:17:07;;;;;;;17.73;11.82;;;1.80;99.90;;;;;;5061008;28;20207;-67
2021/03/15 02:19:55;;;;;;;17.20;12.88;;;1.70;99.90;;;;;;5067260;28;20203;-69
2021/03/15 02:22:33;;;;;;;26.80;13.55;;;1.90;99.90;;;;;;5065956;28;20559;-67
2021/03/15 02:25:30;;;;;;;24.95;15.13;;;1.90;99.90;;;;;;5064831;28;20477;-67
2021/03/15 02:28:28;;;;;;;24.77;15.35;;;2.00;99.90;;;;;;5073006;28;20203;-68
2021/03/15 02:31:31;;;;;;;22.73;12.25;;;1.80;99.90;;;;;;5071736;28;20401;-68
2021/03/15 02:34:10;;;;;;;27.73;14.75;;;1.80;99.90;;;;;;5057535;28;20210;-69
2021/03/15 02:36:40;;;;;;;22.27;15.05;;;1.80;99.90;;;;;;5052222;28;20222;-68
2021/03/15 02:39:19;;;;;;;21.38;13.65;;;1.90;99.90;;;;;;5078421;28;20301;-69
2021/03/15 02:41:47;;;;;;;30.15;14.75;;;2.40;99.90;;;;;;5074806;28;20582;-69
2021/03/15 02:44:15;;;;;;;22.65;13.48;;;1.80;99.90;;;;;;5077372;28;20215;-68
2021/03/15 02:46:45;;;;;;;20.33;14.55;;;1.70;99.90;;;;;;5066538;28;20215;-68
2021/03/15 02:49:15;;;;;;;26.33;15.45;;;1.70;99.90;;;;;;5077754;28;20213;-68
2021/03/15 02:51:43;;;;;;;21.25;14.20;;;1.90;99.90;;;;;;5076717;28;20242;-69
2021/03/15 02:54:12;;;;;;;25.13;14.32;;;1.80;99.90;;;;;;5077339;28;20482;-68
2021/03/15 02:56:44;;;;;;;21.08;15.27;;;1.80;99.90;;;;;;5076868;28;20462;-67
2021/03/15 02:59:13;;;;;;;25.42;14.77;;;1.80;99.90;;;;;;5077818;28;20207;-68
2021/03/15 03:01:42;;;;;;;19.95;13.32;;;1.80;99.90;;;;;;5074282;28;20540;-68
2021/03/15 03:04:10;;;;;;;22.42;14.85;;;1.80;99.90;;;;;;5048066;28;20787;-67
2021/03/15 03:06:39;;;;;;;18.25;12.00;;;1.70;99.90;;;;;;5077080;28;20210;-68
2021/03/15 03:09:11;;;;;;;22.63;14.00;;;1.60;99.90;;;;;;5069684;28;20467;-67
2021/03/15 03:11:38;;;;;;;21.38;13.82;;;1.70;99.90;;;;;;5071747;28;20217;-68
2021/03/15 03:14:07;;;;;;;23.88;15.35;;;1.70;99.90;;;;;;5065593;28;20320;-67
2021/03/15 03:16:39;;;;;;;24.58;14.65;;;1.70;99.90;;;;;;5059481;28;20436;-67
2021/03/15 03:19:14;;;;;;;18.05;12.93;;;1.70;99.90;;;;;;5075863;28;20273;-68
2021/03/15 03:21:42;;;;;;;23.40;14.02;;;1.60;99.90;;;;;;5076799;28;20428;-68
2021/03/15 03:24:09;;;;;;;20.58;14.80;;;1.60;99.90;;;;;;5044344;28;20207;-68
2021/03/15 03:26:38;;;;;;;19.40;14.85;;;1.60;99.90;;;;;;5077163;28;20214;-68
2021/03/15 03:29:07;;;;;;;24.20;14.55;;;1.60;99.90;;;;;;5076649;28;20230;-67
2021/03/15 03:31:38;;;;;;;23.23;14.23;;;1.60;99.90;;;;;;5077683;28;20205;-68
2021/03/15 03:34:07;;;;;;;23.80;15.23;;;1.60;99.90;;;;;;5064088;28;20230;-68
2021/03/15 03:36:34;;;;;;;20.25;14.07;;;2.10;99.90;;;;;;5069727;28;20244;-68
2021/03/15 03:39:03;;;;;;;24.15;13.85;;;1.40;99.90;;;;;;5071956;28;20289;-67
2021/03/15 03:41:30;;;;;;;29.23;14.52;;;1.30;99.90;;;;;;5057094;28;20518;-68
2021/03/15 03:44:13;;;;;;;17.90;13.45;;;1.40;99.90;;;;;;5075573;28;20207;-68
2021/03/15 03:46:41;;;;;;;23.33;13.18;;;1.40;99.90;;;;;;5068024;28;20195;-68
2021/03/15 03:49:09;;;;;;;32.47;14.23;;;1.40;99.90;;;;;;5069561;28;20215;-68
2021/03/15 03:51:45;;;;;;;23.13;12.98;;;1.40;99.90;;;;;;5075980;28;20228;-68
2021/03/15 03:54:18;;;;;;;18.20;13.70;;;1.40;99.90;;;;;;5075037;28;20254;-67
2021/03/15 03:56:51;;;;;;;20.15;13.10;;;1.20;99.90;;;;;;5056517;28;20210;-67
2021/03/15 03:59:21;;;;;;;28.77;12.38;;;1.30;99.90;;;;;;5074907;28;20489;-68
2021/03/15 04:01:51;;;;;;;20.00;13.43;;;1.30;99.90;;;;;;5076507;28;20529;-67
2021/03/15 04:04:23;;;;;;;20.25;13.50;;;1.40;99.90;;;;;;5076075;28;20455;-66
2021/03/15 04:06:51;;;;;;;17.10;12.13;;;1.40;99.90;;;;;;5076592;28;20375;-66
2021/03/15 04:09:26;;;;;;;18.83;11.77;;;1.60;99.90;;;;;;5059585;28;20226;-66
2021/03/15 04:11:57;;;;;;;25.10;14.95;;;1.60;99.90;;;;;;5076348;28;20489;-66
2021/03/15 04:14:30;;;;;;;20.13;13.45;;;1.60;99.90;;;;;;5076814;28;20236;-67
2021/03/15 04:17:01;;;;;;;21.98;13.02;;;1.70;99.90;;;;;;5076263;28;20503;-67
2021/03/15 04:19:38;;;;;;;20.05;12.98;;;1.70;99.90;;;;;;5076346;28;20436;-66
2021/03/15 04:22:09;;;;;;;18.00;12.90;;;1.70;99.90;;;;;;5076415;28;20222;-67
2021/03/15 04:24:39;;;;;;;25.50;14.43;;;1.70;99.90;;;;;;5064644;28;20214;-67
2021/03/15 04:27:07;;;;;;;23.00;15.63;;;1.70;99.90;;;;;;5073933;28;20257;-67
2021/03/15 04:29:36;;;;;;;23.38;14.27;;;1.60;99.90;;;;;;5076171;28;20210;-67
2021/03/15 04:32:04;;;;;;;18.63;13.15;;;1.50;99.90;;;;;;5073230;28;20211;-67
2021/03/15 04:34:34;;;;;;;23.80;13.50;;;1.60;99.90;;;;;;5064833;28;20235;-67
2021/03/15 04:37:06;;;;;;;20.63;13.02;;;1.70;99.90;;;;;;5075724;28;20233;-66
2021/03/15 04:39:35;;;;;;;22.02;14.05;;;1.70;99.90;;;;;;5076619;28;20234;-66
2021/03/15 04:42:02;;;;;;;21.85;14.05;;;1.70;99.90;;;;;;5075142;28;20588;-66
2021/03/15 04:44:30;;;;;;;20.00;13.35;;;1.70;99.90;;;;;;5064776;28;20238;-66
2021/03/15 04:46:57;;;;;;;22.65;14.35;;;1.70;99.90;;;;;;5076751;28;20211;-68
2021/03/15 04:49:27;;;;;;;25.52;15.27;;;1.70;99.90;;;;;;5072441;28;20207;-67
2021/03/15 04:51:54;;;;;;;22.48;13.77;;;1.70;99.90;;;;;;5076331;28;20211;-67
2021/03/15 04:54:21;;;;;;;22.08;12.95;;;1.70;99.90;;;;;;5074273;28;20207;-66
2021/03/15 04:56:50;;;;;;;20.98;13.88;;;1.90;99.90;;;;;;5076135;28;20241;-66
2021/03/15 04:59:22;;;;;;;23.73;14.05;;;2.10;99.90;;;;;;5076353;28;20218;-66
2021/03/15 05:01:50;;;;;;;23.73;14.00;;;2.40;99.90;;;;;;5058200;28;20230;-66
2021/03/15 05:04:19;;;;;;;24.45;15.10;;;2.60;99.90;;;;;;5075947;28;20458;-66
2021/03/15 05:06:46;;;;;;;27.15;15.68;;;2.70;99.80;;;;;;5079322;28;20206;-66
2021/03/15 05:09:15;;;;;;;20.48;14.73;;;2.90;99.40;;;;;;5055612;28;20219;-66
2021/03/15 05:11:42;;;;;;;21.25;13.45;;;3.00;99.40;;;;;;5076681;28;20206;-66
2021/03/15 05:14:13;;;;;;;22.27;13.52;;;3.00;99.40;;;;;;5077255;28;20520;-68
2021/03/15 05:16:41;;;;;;;19.75;12.82;;;3.10;99.30;;;;;;5074240;28;20384;-66
2021/03/15 05:19:12;;;;;;;18.80;12.57;;;3.10;99.30;;;;;;5073815;28;20200;-67
2021/03/15 05:21:41;;;;;;;21.25;13.43;;;3.20;99.60;;;;;;5074211;28;20254;-68
2021/03/15 05:24:09;;;;;;;25.70;15.65;;;3.10;99.10;;;;;;5078035;28;20278;-68
2021/03/15 05:26:39;;;;;;;23.40;13.82;;;3.30;99.20;;;;;;5073910;28;20214;-67
2021/03/15 05:29:12;;;;;;;20.45;14.90;;;3.20;99.50;;;;;;5073537;28;20214;-67
2021/03/15 05:31:44;;;;;;;23.83;15.13;;;3.30;99.40;;;;;;5067069;28;20203;-67
2021/03/15 05:34:13;;;;;;;17.88;12.77;;;3.50;98.80;;;;;;5072529;28;20282;-67
2021/03/15 05:36:42;;;;;;;25.52;15.55;;;3.60;98.70;;;;;;5060260;28;20243;-66
2021/03/15 05:39:08;;;;;;;23.00;14.32;;;3.80;98.30;;;;;;5074983;28;20218;-67
2021/03/15 05:42:01;;;;;;;23.02;13.88;;;3.80;97.90;;;;;;5078931;28;20535;-67
2021/03/15 05:44:56;;;;;;;18.42;12.45;;;4.10;97.90;;;;;;5078136;28;20231;-67
2021/03/15 05:47:52;;;;;;;22.20;13.90;;;4.10;97.80;;;;;;5074590;28;20204;-67
2021/03/15 05:50:29;;;;;;;16.23;13.57;;;4.30;97.20;;;;;;5068791;28;20272;-67
2021/03/15 05:53:14;;;;;;;21.27;12.27;;;4.60;96.90;;;;;;5072802;28;20523;-68
2021/03/15 05:56:11;;;;;;;18.33;12.68;;;4.70;96.60;;;;;;5075664;28;20220;-66
2021/03/15 05:59:03;;;;;;;20.98;13.23;;;4.70;96.60;;;;;;5048160;28;20617;-67
2021/03/15 06:01:36;;;;;;;19.65;13.60;;;4.70;96.40;;;;;;5078166;28;20228;-66
2021/03/15 06:04:34;;;;;;;22.33;15.32;;;4.50;96.80;;;;;;5071688;28;20507;-67
2021/03/15 06:07:06;;;;;;;24.70;16.52;;;4.60;96.60;;;;;;5072652;28;20208;-67
2021/03/15 06:09:44;;;;;;;25.35;17.50;;;4.80;96.40;;;;;;5072757;28;20609;-68
2021/03/15 06:12:24;;;;;;;33.70;18.70;;;4.60;96.60;;;;;;5054773;28;20335;-67
2021/03/15 06:14:54;;;;;;;27.17;17.23;;;4.60;96.70;;;;;;5077646;28;20397;-67
2021/03/15 06:17:21;;;;;;;33.20;17.13;;;4.80;96.50;;;;;;5073261;28;20209;-68
2021/03/15 06:19:49;;;;;;;37.35;21.73;;;4.60;96.00;;;;;;5071935;28;20244;-67
2021/03/15 06:22:17;;;;;;;29.10;16.20;;;5.10;96.00;;;;;;5065556;28;20237;-66
2021/03/15 06:24:44;;;;;;;26.15;16.15;;;5.20;95.70;;;;;;5058484;28;20224;-67
2021/03/15 06:27:11;;;;;;;21.52;15.57;;;5.20;95.40;;;;;;5074595;28;20213;-67
2021/03/15 06:29:38;;;;;;;24.15;16.08;;;5.40;95.20;;;;;;5074459;28;20216;-67
2021/03/15 06:32:07;;;;;;;26.27;17.02;;;5.60;95.00;;;;;;5077430;28;20225;-66
2021/03/15 06:34:36;;;;;;;22.30;16.00;;;5.90;94.60;;;;;;5069015;28;20241;-67
2021/03/15 06:37:03;;;;;;;20.73;14.93;;;5.70;94.30;;;;;;5067467;28;20218;-66
2021/03/15 06:39:36;;;;;;;24.95;15.45;;;5.80;93.90;;;;;;5067971;28;20210;-67
2021/03/15 06:42:07;;;;;;;24.13;17.25;;;5.90;93.80;;;;;;5067230;28;20574;-66
2021/03/15 06:44:34;;;;;;;30.13;16.13;;;5.90;93.50;;;;;;5071347;28;20292;-66
2021/03/15 06:47:01;;;;;;;24.98;16.40;;;5.90;93.40;;;;;;5077154;28;20710;-66
2021/03/15 06:49:29;;;;;;;19.38;15.07;;;6.00;93.20;;;;;;5074066;28;20230;-65
2021/03/15 06:52:03;;;;;;;19.17;14.45;;;6.20;92.80;;;;;;5074469;28;20403;-66
2021/03/15 06:54:30;;;;;;;20.67;16.00;;;6.20;92.40;;;;;;5073838;28;20261;-65
2021/03/15 06:57:17;;;;;;;25.45;15.80;;;6.50;92.60;;;;;;5077660;28;20202;-65
2021/03/15 06:59:54;;;;;;;20.33;15.07;;;6.50;92.00;;;;;;5057379;28;20226;-65
2021/03/15 07:02:25;;;;;;;25.83;16.33;;;6.70;91.80;;;;;;5075615;28;20226;-65
2021/03/15 07:04:55;;;;;;;18.70;12.77;;;6.80;92.10;;;;;;5066955;28;20512;-66
2021/03/15 07:07:23;;;;;;;19.25;15.20;;;7.10;91.30;;;;;;5040412;28;20210;-66
2021/03/15 07:09:55;;;;;;;23.63;16.17;;;7.10;90.90;;;;;;5072932;28;20209;-66
2021/03/15 07:12:25;;;;;;;20.50;16.90;;;7.40;90.80;;;;;;5076871;28;20477;-66
2021/03/15 07:14:53;;;;;;;22.92;15.32;;;7.50;90.50;;;;;;5074095;28;20736;-66
2021/03/15 07:17:25;;;;;;;26.25;16.17;;;7.40;90.20;;;;;;5076325;28;20242;-66
2021/03/15 07:19:55;;;;;;;25.17;17.60;;;7.50;90.30;;;;;;5074407;28;20203;-66
2021/03/15 07:22:26;;;;;;;22.02;17.55;;;7.10;90.70;;;;;;5073123;28;20516;-66
2021/03/15 07:25:12;;;;;;;19.83;15.50;;;7.30;91.00;;;;;;5073230;28;20202;-67
2021/03/15 07:27:42;;;;;;;23.23;15.70;;;7.30;90.40;;;;;;5072677;28;20561;-66
2021/03/15 07:30:27;;;;;;;24.92;16.33;;;7.50;90.70;;;;;;5076027;28;20212;-66
2021/03/15 07:32:58;;;;;;;22.48;16.55;;;7.30;90.60;;;;;;5075188;28;20210;-66
2021/03/15 07:35:34;;;;;;;26.70;16.50;;;7.50;90.10;;;;;;5075820;28;20567;-66
2021/03/15 07:38:03;;;;;;;20.45;14.57;;;7.70;90.10;;;;;;5074277;28;20222;-67
2021/03/15 07:40:44;;;;;;;19.98;14.85;;;7.70;89.60;;;;;;5071304;28;20529;-67
2021/03/15 07:43:26;;;;;;;17.85;15.70;;;8.00;89.60;;;;;;5071813;28;20353;-67
2021/03/15 07:45:52;;;;;;;23.92;16.38;;;8.30;88.80;;;;;;5076033;28;20315;-67
2021/03/15 07:48:26;;;;;;;20.05;16.83;;;8.40;88.60;;;;;;5076323;28;20462;-67
2021/03/15 07:50:58;;;;;;;18.65;16.63;;;8.50;87.80;;;;;;5073897;28;20203;-67
2021/03/15 07:53:35;;;;;;;19.15;15.50;;;8.60;87.90;;;;;;5076341;28;20306;-66
2021/03/15 07:56:03;;;;;;;24.92;16.50;;;8.90;86.70;;;;;;5076043;28;20213;-67
2021/03/15 07:58:32;;;;;;;24.13;16.75;;;9.20;86.10;;;;;;5074588;28;20361;-68
2021/03/15 08:01:01;;;;;;;21.77;16.90;;;9.20;85.30;;;;;;5073201;28;20239;-67
2021/03/15 08:03:29;;;;;;;20.08;15.00;;;9.30;85.80;;;;;;5071483;28;20205;-66
2021/03/15 08:05:59;;;;;;;23.65;15.60;;;9.40;84.80;;;;;;5073298;28;20195;-68
2021/03/15 08:08:27;;;;;;;18.13;15.75;;;9.40;84.50;;;;;;5055921;28;20466;-69
2021/03/15 08:10:55;;;;;;;19.48;15.23;;;9.40;86.20;;;;;;5072463;28;20270;-68
2021/03/15 08:13:25;;;;;;;34.10;15.98;;;9.40;83.70;;;;;;5073559;28;20413;-69
2021/03/15 08:15:55;;;;;;;21.60;15.18;;;9.40;83.90;;;;;;5073376;28;20231;-68
2021/03/15 08:18:24;;;;;;;16.73;14.98;;;9.70;84.20;;;;;;5069179;28;20261;-69
2021/03/15 08:21:10;;;;;;;20.15;15.93;;;9.80;83.80;;;;;;5071273;28;20310;-69
2021/03/15 08:23:44;;;;;;;21.52;17.13;;;10.20;82.60;;;;;;5071563;28;20242;-68
2021/03/15 08:26:13;;;;;;;19.80;16.17;;;10.10;83.00;;;;;;5070606;28;20222;-69
2021/03/15 08:28:42;;;;;;;20.20;15.13;;;10.10;82.70;;;;;;5068688;28;20356;-68
2021/03/15 08:31:20;;;;;;;20.73;15.88;;;10.20;82.10;;;;;;5069031;28;20220;-67
2021/03/15 08:33:48;;;;;;;17.90;15.00;;;10.20;82.20;;;;;;5063208;28;20395;-68
2021/03/15 08:36:17;;;;;;;19.58;15.48;;;10.20;80.80;;;;;;5073326;28;20219;-67
2021/03/15 08:38:45;;;;;;;19.10;15.10;;;9.80;83.80;;;;;;5076403;28;20261;-68
2021/03/15 08:41:21;;;;;;;20.02;14.80;;;9.80;83.20;;;;;;5079467;28;20294;-67
2021/03/15 08:43:49;;;;;;;18.55;13.00;;;10.00;82.50;;;;;;5078389;28;20394;-67
2021/03/15 08:46:34;;;;;;;18.08;14.55;;;10.30;81.50;;;;;;5080805;28;20238;-69
2021/03/15 08:49:07;;;;;;;17.45;12.88;;;10.10;81.20;;;;;;5080149;28;20202;-68
2021/03/15 08:51:34;;;;;;;17.77;14.55;;;11.00;78.00;;;;;;5063622;28;20198;-69
2021/03/15 08:54:08;;;;;;;17.75;14.60;;;11.40;77.30;;;;;;5082062;28;20423;-67
2021/03/15 08:56:46;;;;;;;16.67;13.40;;;11.60;76.70;;;;;;5074979;28;20224;-70
2021/03/15 08:59:14;;;;;;;16.25;13.43;;;12.30;71.90;;;;;;5072183;28;20222;-69
2021/03/15 09:01:59;;;;;;;17.45;14.60;;;14.20;66.20;;;;;;5072538;28;20227;-69
2021/03/15 09:04:31;;;;;;;19.58;14.43;;;14.10;63.40;;;;;;5081268;28;20225;-69
2021/03/15 09:06:59;;;;;;;16.98;15.32;;;13.40;65.80;;;;;;5080957;28;20269;-67
2021/03/15 09:09:30;;;;;;;20.38;14.65;;;12.80;68.60;;;;;;5079664;28;20261;-68
2021/03/15 09:12:03;;;;;;;20.38;15.02;;;11.90;73.20;;;;;;5081456;28;20218;-68
2021/03/15 09:14:35;;;;;;;14.80;13.27;;;11.70;73.70;;;;;;5079609;28;20202;-67
2021/03/15 09:17:22;;;;;;;17.33;14.73;;;11.50;73.00;;;;;;5081881;28;20265;-67
2021/03/15 09:19:51;;;;;;;16.00;14.60;;;11.50;73.80;;;;;;5081216;28;20203;-67
2021/03/15 09:22:31;;;;;;;20.52;14.80;;;11.70;73.70;;;;;;5072524;28;20235;-68
2021/03/15 09:24:59;;;;;;;18.08;14.55;;;11.50;74.40;;;;;;5079287;28;20226;-68
2021/03/15 09:27:40;;;;;;;25.33;14.93;;;11.70;73.80;;;;;;5081822;28;20217;-69
2021/03/15 09:30:29;;;;;;;17.52;14.07;;;11.80;73.00;;;;;;5081195;28;20217;-67
2021/03/15 09:32:58;;;;;;;15.80;14.10;;;11.50;73.80;;;;;;5073026;28;20194;-67
2021/03/15 09:35:40;;;;;;;18.50;15.10;;;11.30;74.50;;;;;;5063995;28;20247;-68
2021/03/15 09:38:12;;;;;;;16.38;13.90;;;10.90;76.70;;;;;;5080404;28;20222;-69
2021/03/15 09:40:41;;;;;;;21.33;14.80;;;10.80;77.90;;;;;;5080481;28;20294;-68
2021/03/15 09:43:27;;;;;;;19.33;15.35;;;10.90;79.10;;;;;;5073854;28;20210;-66
2021/03/15 09:45:59;;;;;;;19.83;14.73;;;11.00;77.30;;;;;;5079646;28;20283;-68
2021/03/15 09:48:28;;;;;;;16.80;14.55;;;11.00;77.00;;;;;;5081293;28;20216;-67
2021/03/15 09:50:59;;;;;;;22.17;15.90;;;11.30;75.60;;;;;;5078571;28;20504;-66
2021/03/15 09:53:27;;;;;;;21.05;14.45;;;11.70;75.30;;;;;;5083513;28;20210;-66
2021/03/15 09:56:05;;;;;;;18.83;12.73;;;12.00;74.10;;;;;;5079456;28;20266;-68
2021/03/15 09:58:32;;;;;;;16.02;14.18;;;12.40;71.70;;;;;;5079716;28;20214;-68
2021/03/15 10:00:59;;;;;;;18.50;12.05;;;12.70;70.70;;;;;;5080561;28;20268;-67
2021/03/15 10:03:27;;;;;;;15.63;12.38;;;12.80;71.60;;;;;;5069610;28;20209;-68
2021/03/15 10:05:55;;;;;;;17.23;15.30;;;13.10;70.40;;;;;;5079738;28;20202;-67
2021/03/15 10:08:23;;;;;;;16.77;13.48;;;13.30;68.30;;;;;;5080393;28;20266;-68
2021/03/15 10:10:51;;;;;;;19.40;14.95;;;13.40;66.70;;;;;;5077841;28;21090;-67
2021/03/15 10:13:17;;;;;;;22.02;13.95;;;13.10;67.90;;;;;;5080707;28;20213;-68
2021/03/15 10:15:45;;;;;;;22.75;16.15;;;12.90;69.50;;;;;;5079990;28;20215;-69
2021/03/15 10:18:20;;;;;;;23.33;15.43;;;12.90;67.40;;;;;;5076207;28;20214;-67
2021/03/15 10:20:50;;;;;;;17.15;13.65;;;12.80;67.50;;;;;;5077025;28;20394;-67
2021/03/15 10:23:19;;;;;;;13.50;12.20;;;13.10;67.20;;;;;;5074712;28;20211;-67
2021/03/15 10:25:57;;;;;;;16.55;12.95;;;13.40;65.30;;;;;;5077798;28;20198;-68
2021/03/15 10:28:26;;;;;;;13.50;12.18;;;13.40;65.60;;;;;;5075865;28;20262;-68
2021/03/15 10:31:12;;;;;;;18.33;15.70;;;13.60;65.20;;;;;;5065138;28;20217;-67
2021/03/15 10:33:44;;;;;;;18.20;12.15;;;13.80;66.90;;;;;;5080941;28;20461;-68
2021/03/15 10:36:16;;;;;;;19.88;13.23;;;13.50;64.80;;;;;;5077942;28;20540;-68
2021/03/15 10:38:43;;;;;;;17.17;13.82;;;13.10;65.40;;;;;;5078835;28;20376;-67
2021/03/15 10:41:10;;;;;;;13.43;12.10;;;12.80;67.80;;;;;;5068626;28;20231;-68
2021/03/15 10:43:37;;;;;;;14.00;12.50;;;12.60;67.00;;;;;;5072194;28;20529;-68
2021/03/15 10:46:18;;;;;;;15.32;13.15;;;11.90;69.10;;;;;;5078864;28;20536;-68
2021/03/15 10:48:46;;;;;;;14.27;12.77;;;11.60;70.50;;;;;;5079911;28;20273;-67
2021/03/15 10:51:13;;;;;;;16.63;12.65;;;11.00;73.70;;;;;;5078602;28;20548;-68
2021/03/15 10:53:44;;;;;;;14.82;13.43;;;11.00;74.70;;;;;;5077029;28;20266;-67
2021/03/15 10:56:21;;;;;;;13.25;11.90;;;10.90;76.30;;;;;;5079682;28;20216;-67
2021/03/15 10:58:48;;;;;;;13.02;10.13;;;11.00;77.20;;;;;;5069331;28;20205;-68
2021/03/15 11:01:23;;;;;;;12.35;11.10;;;11.10;74.40;;;;;;5079882;28;20407;-67
2021/03/15 11:03:51;;;;;;;12.38;11.18;;;11.00;72.90;;;;;;5055213;28;20234;-68
2021/03/15 11:06:21;;;;;;;13.77;12.25;;;10.80;75.50;;;;;;5057093;28;20217;-68
2021/03/15 11:08:58;;;;;;;15.70;11.50;;;10.60;74.60;;;;;;5080052;28;20230;-68
2021/03/15 11:11:30;;;;;;;13.43;12.13;;;10.80;73.60;;;;;;5079753;28;20245;-68
2021/03/15 11:13:59;;;;;;;12.40;11.38;;;11.20;72.10;;;;;;5064800;28;20361;-68
2021/03/15 11:16:30;;;;;;;17.02;12.50;;;11.50;70.20;;;;;;5079434;28;20553;-68
2021/03/15 11:19:03;;;;;;;13.35;12.10;;;11.70;70.50;;;;;;5066775;28;20377;-68
2021/03/15 11:21:37;;;;;;;13.45;12.05;;;11.80;70.10;;;;;;5072387;28;20237;-68
2021/03/15 11:24:05;;;;;;;12.88;11.35;;;11.80;68.50;;;;;;5071564;28;20400;-67
2021/03/15 11:26:52;;;;;;;11.98;10.77;;;11.70;69.90;;;;;;5069853;28;20206;-67
2021/03/15 11:29:37;;;;;;;12.10;10.90;;;11.50;70.30;;;;;;5079066;28;20210;-67
2021/03/15 11:32:13;;;;;;;13.90;10.88;;;11.40;70.60;;;;;;5077231;28;20284;-68
2021/03/15 11:34:51;;;;;;;17.83;11.75;;;11.40;70.70;;;;;;5077083;28;20213;-67
2021/03/15 11:37:28;;;;;;;17.35;11.45;;;11.40;71.00;;;;;;5075665;28;20430;-67
2021/03/15 11:39:56;;;;;;;15.32;11.80;;;11.50;71.30;;;;;;5077768;28;20206;-67
2021/03/15 11:42:31;;;;;;;12.15;10.32;;;11.60;69.90;;;;;;5078363;28;20236;-67
2021/03/15 11:45:03;;;;;;;12.20;10.73;;;11.60;68.20;;;;;;5076971;28;20240;-67
2021/03/15 11:47:29;;;;;;;11.80;10.68;;;11.50;70.10;;;;;;5079074;28;20206;-68
2021/03/15 11:49:56;;;;;;;10.40;9.45;;;11.70;70.40;;;;;;5070463;28;20196;-67
2021/03/15 11:52:29;;;;;;;11.32;10.00;;;12.30;67.30;;;;;;5066382;28;20210;-66
2021/03/15 11:54:58;;;;;;;15.75;10.10;;;13.00;65.10;;;;;;5076242;28;20215;-67
2021/03/15 11:57:25;;;;;;;13.45;11.38;;;13.40;63.50;;;;;;5078920;28;20202;-68
2021/03/15 11:59:52;;;;;;;11.40;10.20;;;13.40;60.30;;;;;;5067246;28;20441;-67
2021/03/15 12:02:20;;;;;;;13.25;11.57;;;13.10;62.40;;;;;;5077327;28;20230;-67
2021/03/15 12:04:47;;;;;;;12.60;11.30;;;12.70;63.90;;;;;;5079404;28;20207;-67
2021/03/15 12:07:14;;;;;;;12.15;10.95;;;12.60;64.70;;;;;;5078540;28;20210;-67
2021/03/15 12:09:41;;;;;;;20.50;13.95;;;12.80;64.60;;;;;;5078078;28;20194;-67
2021/03/15 12:12:09;;;;;;;12.77;11.40;;;13.00;63.40;;;;;;5072402;28;20215;-67
2021/03/15 12:14:35;;;;;;;13.60;12.27;;;12.90;62.60;;;;;;5079530;28;20220;-68
2021/03/15 12:17:02;;;;;;;12.40;11.40;;;12.40;64.40;;;;;;5081674;28;20270;-68
2021/03/15 12:19:29;;;;;;;13.45;11.95;;;12.10;65.50;;;;;;5081477;28;20264;-68
2021/03/15 12:22:17;;;;;;;12.00;10.60;;;12.00;65.60;;;;;;5075399;28;20233;-67
2021/03/15 12:24:47;;;;;;;14.38;10.95;;;12.00;65.30;;;;;;5078183;28;20202;-68
2021/03/15 12:27:13;;;;;;;16.02;11.25;;;12.40;63.40;;;;;;5071559;28;20248;-68
2021/03/15 12:29:45;;;;;;;14.32;11.82;;;12.60;62.70;;;;;;5081466;28;20441;-68
2021/03/15 12:32:13;;;;;;;13.05;10.60;;;12.90;61.30;;;;;;5072685;28;20436;-67
2021/03/15 12:34:42;;;;;;;13.93;11.48;;;13.20;60.50;;;;;;5082542;28;20209;-68
2021/03/15 12:37:09;;;;;;;15.23;11.68;;;13.20;60.50;;;;;;5081013;28;20219;-67
2021/03/15 12:39:36;;;;;;;23.50;14.63;;;13.30;58.70;;;;;;5082539;28;20519;-69
2021/03/15 12:42:03;;;;;;;29.17;18.55;;;13.10;61.90;;;;;;5081914;28;20536;-68
2021/03/15 12:44:30;;;;;;;13.20;12.00;;;12.60;61.40;;;;;;5079915;28;20505;-66
2021/03/15 12:46:57;;;;;;;14.38;12.38;;;12.30;63.70;;;;;;5073676;28;20235;-67
2021/03/15 12:49:24;;;;;;;16.40;12.98;;;12.00;65.50;;;;;;5078460;28;20245;-68
2021/03/15 12:51:50;;;;;;;12.38;11.18;;;11.80;64.20;;;;;;5063586;28;20253;-68
2021/03/15 12:54:17;;;;;;;16.02;11.90;;;11.70;65.40;;;;;;5081076;28;20236;-67